createdAt,value
2023-10-20T00:01:11.142Z,11.58
2023-10-20T00:11:11.124Z,11.5
2023-10-20T00:21:11.137Z,11.52
2023-10-20T00:31:11.155Z,11.53
2023-10-20T00:41:11.146Z,11.53
2023-10-20T00:51:11.129Z,11.52
2023-10-20T01:01:11.186Z,11.54
2023-10-20T01:11:11.224Z,11.58
2023-10-20T01:21:11.184Z,11.59
2023-10-20T01:31:11.213Z,11.6
2023-10-20T01:41:11.220Z,11.65
2023-10-20T01:51:11.190Z,11.61
2023-10-20T02:01:11.259Z,11.68
2023-10-20T02:11:11.094Z,11.7
2023-10-20T02:21:11.180Z,11.64
2023-10-20T02:31:11.317Z,11.65
2023-10-20T02:41:11.147Z,11.68
2023-10-20T02:51:11.251Z,11.68
2023-10-20T03:01:11.188Z,11.73
2023-10-20T03:11:11.166Z,11.74
2023-10-20T03:21:11.236Z,11.76
2023-10-20T03:31:11.126Z,11.75
2023-10-20T03:41:11.273Z,11.7
2023-10-20T03:51:11.092Z,11.7
2023-10-20T04:01:11.197Z,11.72
2023-10-20T04:11:11.144Z,11.7
2023-10-20T04:21:11.081Z,11.7
2023-10-20T04:31:11.160Z,11.69
2023-10-20T04:41:11.174Z,11.69
2023-10-20T04:51:11.166Z,11.73
2023-10-20T05:01:11.162Z,11.8
2023-10-20T05:11:11.021Z,11.81
2023-10-20T05:21:11.179Z,11.73
2023-10-20T05:31:11.223Z,11.72
2023-10-20T05:41:10.979Z,11.83
2023-10-20T05:51:11.101Z,11.81
2023-10-20T06:01:11.033Z,11.85
2023-10-20T06:11:10.969Z,11.9
2023-10-20T06:21:11.065Z,11.99
2023-10-20T06:31:11.052Z,12.1
2023-10-20T06:41:11.003Z,12.12
2023-10-20T06:51:11.009Z,12.11
2023-10-20T07:01:11.108Z,12.15
2023-10-20T07:11:11.209Z,12.34
2023-10-20T07:21:11.018Z,12.58
2023-10-20T07:31:10.956Z,12.71
2023-10-20T07:41:11.193Z,12.77
2023-10-20T07:51:10.991Z,12.86
2023-10-20T08:01:10.971Z,13.03
2023-10-20T08:11:11.122Z,13.17
2023-10-20T08:21:11.073Z,13.26
2023-10-20T08:31:10.830Z,13.33
2023-10-20T08:41:13.516Z,13.45
2023-10-20T08:51:10.844Z,13.58
2023-10-20T09:01:10.844Z,13.84
2023-10-20T09:11:10.822Z,13.97
2023-10-20T09:21:10.796Z,14.03
2023-10-20T09:31:11.605Z,14.27
2023-10-20T09:41:10.803Z,14.48
2023-10-20T09:51:10.782Z,14.67
2023-10-20T10:01:10.847Z,14.99
2023-10-20T10:11:10.770Z,15.21
2023-10-20T10:21:10.793Z,15.46
2023-10-20T10:31:10.792Z,15.92
2023-10-20T10:41:10.760Z,18.33
2023-10-20T10:51:10.736Z,19.92
2023-10-20T11:01:10.799Z,20.79
2023-10-20T11:11:10.721Z,21.6
2023-10-20T11:21:11.993Z,22.43
2023-10-20T11:31:10.701Z,22.73
2023-10-20T11:41:10.791Z,22.65
2023-10-20T11:51:12.184Z,22.8
2023-10-20T12:01:10.698Z,23.02
2023-10-20T12:11:10.873Z,23.04
2023-10-20T12:21:12.124Z,23.12
2023-10-20T12:31:10.751Z,22.98
2023-10-20T12:41:10.843Z,22.66
2023-10-20T12:51:10.775Z,22.51
2023-10-20T13:01:12.598Z,22.94
2023-10-20T13:11:10.829Z,22.99
2023-10-20T13:21:10.607Z,22.77
2023-10-20T13:31:11.750Z,22.71
2023-10-20T13:41:10.748Z,22.5
2023-10-20T13:51:10.866Z,22.07
2023-10-20T14:01:10.687Z,22.02
2023-10-20T14:11:11.659Z,21.78
2023-10-20T14:21:10.668Z,21.61
2023-10-20T14:31:10.579Z,21.65
2023-10-20T14:41:10.555Z,21.58
2023-10-20T14:51:10.496Z,21.48
2023-10-20T15:01:10.482Z,21.09
2023-10-20T15:11:10.582Z,20.65
2023-10-20T15:21:10.621Z,19.94
2023-10-20T15:31:10.485Z,19.38
2023-10-20T15:41:10.616Z,18.83
2023-10-20T15:51:10.451Z,18.3
2023-10-20T16:01:10.626Z,17.91
2023-10-20T16:11:10.432Z,17.87
2023-10-20T16:21:10.666Z,17.64
2023-10-20T16:31:10.611Z,17.61
2023-10-20T16:41:10.544Z,17.39
2023-10-20T16:51:10.519Z,16.99
2023-10-20T17:01:10.585Z,16.65
2023-10-20T17:11:10.491Z,15.96
2023-10-20T17:21:10.429Z,15.87
2023-10-20T17:31:10.491Z,15.7
2023-10-20T17:41:10.475Z,15.57
2023-10-20T17:51:10.768Z,15.37
2023-10-20T18:01:10.566Z,15.29
2023-10-20T18:11:10.504Z,15.32
2023-10-20T18:21:10.386Z,15.28
2023-10-20T18:31:10.353Z,15.12
2023-10-20T18:41:10.315Z,15.06
2023-10-20T18:51:15.286Z,15.04
2023-10-20T19:01:10.355Z,14.92
2023-10-20T19:11:10.289Z,14.89
2023-10-20T19:21:10.421Z,14.87
2023-10-20T19:31:10.378Z,14.88
2023-10-20T19:41:10.281Z,14.89
2023-10-20T19:51:10.339Z,14.89
2023-10-20T20:01:10.353Z,14.87
2023-10-20T20:11:10.252Z,14.83
2023-10-20T20:21:10.269Z,14.8
2023-10-20T20:31:10.268Z,14.74
2023-10-20T20:41:10.253Z,14.76
2023-10-20T20:51:10.241Z,14.77
2023-10-20T21:01:10.295Z,14.56
2023-10-20T21:11:10.221Z,14.23
2023-10-20T21:21:10.250Z,13.6
2023-10-20T21:31:10.265Z,13.37
2023-10-20T21:41:17.682Z,13.41
2023-10-20T21:51:10.149Z,13.42
2023-10-20T22:01:10.635Z,13.35
2023-10-20T22:11:10.240Z,13.28
2023-10-20T22:21:10.350Z,13.13
2023-10-20T22:31:10.280Z,13.1
2023-10-20T22:41:10.237Z,13
2023-10-20T22:51:10.149Z,12.9
2023-10-20T23:01:10.198Z,12.8
2023-10-20T23:11:10.110Z,12.67
2023-10-20T23:21:10.253Z,12.5
2023-10-20T23:31:10.258Z,12.41
2023-10-20T23:41:10.104Z,12.28
2023-10-20T23:51:10.246Z,12.23
